Time;durP1;ratioP1;P1;durP2;ratioP2;P2;SDS_P1;SDS_P2;PMS_P1;PMS_P2;Temp;Humidity;BMP_temperature;BMP_pressure;BME280_temperature;BME280_humidity;BME280_pressure;Samples;Min_cycle;Max_cycle;Signal;HPM_P1;HPM_P2
2022/11/10 00:00:13;;;;;;;6.13;1.10;;;10.30;99.90;;;;;;5155122;27;20043;-72
2022/11/10 00:02:42;;;;;;;4.20;1.00;;;10.30;99.90;;;;;;5154871;27;20054;-72
2022/11/10 00:05:12;;;;;;;5.15;1.23;;;10.20;99.90;;;;;;5155301;27;20394;-72
2022/11/10 00:07:38;;;;;;;2.88;1.00;;;10.30;99.90;;;;;;5154590;27;20505;-72
2022/11/10 00:10:04;;;;;;;4.32;1.00;;;10.30;99.90;;;;;;5155067;27;20046;-72
2022/11/10 00:12:31;;;;;;;5.65;1.30;;;10.30;99.90;;;;;;5119399;27;20101;-71
2022/11/10 00:17:42;;;;;;;6.68;1.20;;;10.30;99.90;;;;;;5155232;27;20502;-72
2022/11/10 00:20:08;;;;;;;6.13;2.03;;;10.40;99.90;;;;;;5136629;27;20133;-72
2022/11/10 00:22:36;;;;;;;8.07;1.75;;;10.20;99.90;;;;;;5154973;27;20055;-72
2022/11/10 00:25:02;;;;;;;7.43;1.95;;;10.40;99.90;;;;;;5155059;27;20046;-72
2022/11/10 00:27:27;;;;;;;9.02;2.00;;;10.30;99.90;;;;;;5119540;27;20051;-71
2022/11/10 00:29:53;;;;;;;9.80;2.88;;;10.10;99.90;;;;;;5136580;27;20046;-72
2022/11/10 00:32:19;;;;;;;10.32;2.05;;;10.50;99.90;;;;;;5136442;27;20043;-71
2022/11/10 00:34:45;;;;;;;5.63;1.98;;;10.40;99.90;;;;;;5120846;27;20056;-72
2022/11/10 00:37:10;;;;;;;6.10;2.58;;;10.50;99.90;;;;;;5158390;27;20159;-72
2022/11/10 00:39:36;;;;;;;7.63;2.33;;;10.10;99.90;;;;;;5140754;27;20141;-71
2022/11/10 00:42:02;;;;;;;8.88;1.98;;;10.20;99.90;;;;;;5158953;27;20078;-72
2022/11/10 00:44:28;;;;;;;9.38;2.13;;;10.10;99.90;;;;;;5158836;27;20052;-72
2022/11/10 00:46:53;;;;;;;7.97;1.90;;;10.20;99.90;;;;;;5140315;27;20072;-72
2022/11/10 00:49:19;;;;;;;7.93;2.13;;;10.00;99.90;;;;;;5140427;27;20087;-72
2022/11/10 00:51:45;;;;;;;7.13;2.22;;;10.20;99.90;;;;;;5140165;27;20115;-72
2022/11/10 00:54:11;;;;;;;8.10;2.05;;;10.40;99.90;;;;;;5158636;27;20047;-72
2022/11/10 00:56:36;;;;;;;6.00;2.08;;;10.80;99.90;;;;;;5140109;27;20508;-71
2022/11/10 00:59:02;;;;;;;10.00;2.30;;;10.00;99.90;;;;;;5158264;27;20050;-72
2022/11/10 01:01:28;;;;;;;11.00;2.35;;;10.50;99.90;;;;;;5158672;27;20066;-71
2022/11/10 01:03:54;;;;;;;8.32;2.25;;;10.00;99.90;;;;;;5158626;27;20397;-71
2022/11/10 01:06:20;;;;;;;12.30;2.53;;;10.20;99.90;;;;;;5139528;27;20117;-72
2022/11/10 01:08:46;;;;;;;7.78;2.63;;;10.00;99.90;;;;;;5158490;27;20046;-71
2022/11/10 01:11:18;;;;;;;10.70;2.70;;;10.20;99.90;;;;;;5158493;27;20091;-71
2022/11/10 01:13:45;;;;;;;7.95;2.78;;;10.00;99.90;;;;;;5139650;27;20446;-71
2022/11/10 01:16:18;;;;;;;10.70;2.63;;;9.90;99.90;;;;;;5139777;27;20043;-72
2022/11/10 01:18:47;;;;;;;;;;;10.00;99.90;;;;;;5158982;27;20050;-71
2022/11/10 01:21:13;;;;;;;11.52;2.97;;;10.40;99.90;;;;;;5157845;27;20029;-71
2022/11/10 01:23:39;;;;;;;9.00;2.70;;;10.00;99.90;;;;;;5158257;27;20050;-71
2022/11/10 01:26:06;;;;;;;8.55;2.42;;;10.00;99.90;;;;;;5157784;27;20134;-72
2022/11/10 01:28:33;;;;;;;9.30;2.90;;;10.00;99.90;;;;;;5139925;27;20049;-71
2022/11/10 01:31:04;;;;;;;11.80;3.30;;;10.00;99.90;;;;;;5157748;27;20052;-71
2022/11/10 01:33:30;;;;;;;9.88;3.05;;;10.10;99.90;;;;;;5157973;27;20047;-72
2022/11/10 01:35:57;;;;;;;8.98;2.83;;;10.30;99.90;;;;;;5139086;27;20042;-72
2022/11/10 01:38:25;;;;;;;10.48;3.30;;;10.30;99.90;;;;;;5157568;27;20133;-72
2022/11/10 01:40:50;;;;;;;10.30;3.00;;;10.00;99.90;;;;;;5139176;27;20047;-71
2022/11/10 01:43:16;;;;;;;11.05;3.25;;;10.40;99.90;;;;;;5157900;27;20114;-71
2022/11/10 01:45:44;;;;;;;10.23;2.80;;;10.20;99.90;;;;;;5157412;27;20383;-71
2022/11/10 01:48:16;;;;;;;8.68;2.67;;;9.90;99.90;;;;;;5138845;27;20126;-71
2022/11/10 01:50:43;;;;;;;8.23;2.47;;;9.90;99.90;;;;;;5157496;27;20046;-71
2022/11/10 01:53:17;;;;;;;9.18;2.70;;;10.20;99.90;;;;;;5157492;27;20450;-71
2022/11/10 01:55:45;;;;;;;8.07;2.90;;;10.40;99.90;;;;;;5157942;27;20058;-71
2022/11/10 01:58:14;;;;;;;8.35;2.70;;;10.10;99.90;;;;;;5157536;27;20042;-71
2022/11/10 02:00:39;;;;;;;9.93;2.97;;;9.80;99.90;;;;;;5157314;27;20406;-72
2022/11/10 02:03:30;;;;;;;9.05;2.80;;;10.00;99.90;;;;;;5138893;27;20039;-71
2022/11/10 02:05:57;;;;;;;9.57;3.13;;;9.80;99.90;;;;;;5156598;27;20039;-71
2022/11/10 02:08:24;;;;;;;10.07;2.83;;;9.90;99.90;;;;;;5157289;27;20142;-71
2022/11/10 02:10:49;;;;;;;11.82;2.90;;;10.60;99.90;;;;;;5157299;27;20478;-71
2022/11/10 02:13:15;;;;;;;14.00;2.95;;;9.90;99.90;;;;;;5157170;27;20121;-71
2022/11/10 02:15:41;;;;;;;13.50;3.22;;;10.10;99.90;;;;;;5157196;27;20043;-71
2022/11/10 02:18:07;;;;;;;11.00;3.15;;;9.90;99.90;;;;;;5156905;27;20054;-72
2022/11/10 02:20:33;;;;;;;7.80;3.30;;;9.90;99.90;;;;;;5157168;27;20042;-71
2022/11/10 02:22:58;;;;;;;14.07;3.38;;;10.10;99.90;;;;;;5156555;27;20062;-71
2022/11/10 02:25:29;;;;;;;9.57;3.80;;;9.90;99.90;;;;;;5138663;27;20546;-71
2022/11/10 02:27:54;;;;;;;12.52;3.83;;;9.80;99.90;;;;;;5157042;27;20098;-72
2022/11/10 02:30:20;;;;;;;10.77;3.70;;;9.80;99.90;;;;;;5156793;27;20046;-72
2022/11/10 02:32:46;;;;;;;9.68;3.17;;;9.80;99.90;;;;;;5156504;27;20038;-71
2022/11/10 02:35:11;;;;;;;14.38;4.20;;;9.80;99.90;;;;;;5156703;27;20049;-71
2022/11/10 02:37:37;;;;;;;10.70;3.70;;;9.90;99.90;;;;;;5156174;27;20047;-72
2022/11/10 02:40:04;;;;;;;11.50;4.57;;;10.20;99.90;;;;;;5138486;27;20573;-72
2022/11/10 02:42:29;;;;;;;11.15;4.68;;;9.90;99.90;;;;;;5138374;27;20046;-71
2022/11/10 02:44:56;;;;;;;10.48;4.40;;;10.40;99.90;;;;;;5137902;27;20410;-72
2022/11/10 02:47:22;;;;;;;7.47;3.78;;;9.80;99.90;;;;;;5137836;27;20046;-72
2022/11/10 02:49:48;;;;;;;12.98;4.28;;;10.50;99.90;;;;;;5156518;27;20131;-72
2022/11/10 02:52:13;;;;;;;11.18;4.05;;;10.10;99.90;;;;;;5156345;27;20074;-72
2022/11/10 02:54:39;;;;;;;10.30;3.65;;;9.90;99.90;;;;;;5156370;27;20099;-72
2022/11/10 02:57:04;;;;;;;9.23;4.07;;;10.10;99.90;;;;;;5156224;27;20043;-71
2022/11/10 02:59:30;;;;;;;9.82;3.88;;;9.90;99.90;;;;;;5155225;27;20047;-71
2022/11/10 03:01:56;;;;;;;10.00;3.60;;;9.90;99.90;;;;;;5156040;27;20413;-71
2022/11/10 03:04:21;;;;;;;7.40;2.95;;;9.80;99.90;;;;;;5156327;27;20047;-72
2022/11/10 03:06:47;;;;;;;8.85;3.13;;;10.00;99.90;;;;;;5137148;27;20109;-72
2022/11/10 03:09:13;;;;;;;10.45;3.25;;;9.60;99.90;;;;;;5156095;27;20111;-71
2022/11/10 03:11:38;;;;;;;10.65;3.40;;;9.60;99.90;;;;;;5156034;27;20049;-72
2022/11/10 03:14:04;;;;;;;11.68;3.45;;;10.10;99.90;;;;;;5137548;27;20129;-72
2022/11/10 03:16:29;;;;;;;9.82;3.83;;;9.90;99.90;;;;;;5155830;27;20042;-72
2022/11/10 03:18:55;;;;;;;8.88;3.63;;;9.70;99.90;;;;;;5137438;27;20042;-72
2022/11/10 03:21:21;;;;;;;11.20;4.15;;;9.70;99.90;;;;;;5138080;27;20078;-71
2022/11/10 03:23:47;;;;;;;11.25;3.75;;;10.20;99.90;;;;;;5155865;27;20099;-71
2022/11/10 03:26:13;;;;;;;10.45;3.70;;;9.80;99.90;;;;;;5137441;27;20042;-71
2022/11/10 03:28:38;;;;;;;13.00;4.07;;;9.70;99.90;;;;;;5137170;27;20047;-71
2022/11/10 03:31:04;;;;;;;14.80;3.53;;;9.60;99.90;;;;;;5155351;27;20050;-71
2022/11/10 03:33:30;;;;;;;9.52;3.75;;;10.00;99.90;;;;;;5155640;27;20042;-71
2022/11/10 03:35:56;;;;;;;13.93;3.28;;;9.80;99.90;;;;;;5137004;27;20042;-72
2022/11/10 03:38:21;;;;;;;9.05;2.97;;;10.00;99.90;;;;;;5155529;27;20046;-72
2022/11/10 03:40:49;;;;;;;10.82;2.78;;;10.00;99.90;;;;;;5137212;27;20046;-71
2022/11/10 03:43:15;;;;;;;9.25;2.70;;;10.50;99.90;;;;;;5155447;27;20394;-71
2022/11/10 03:45:43;;;;;;;12.57;3.13;;;9.90;99.90;;;;;;5155198;27;20129;-72
2022/11/10 03:48:09;;;;;;;9.38;3.05;;;10.00;99.90;;;;;;5155398;27;20153;-71
2022/11/10 03:50:35;;;;;;;11.30;2.83;;;10.30;99.90;;;;;;5155482;27;20035;-72
2022/11/10 03:53:01;;;;;;;11.60;3.10;;;9.80;99.90;;;;;;5155319;27;20386;-71
2022/11/10 03:55:26;;;;;;;11.02;2.88;;;9.80;99.90;;;;;;5155228;27;20054;-71
2022/11/10 03:57:52;;;;;;;9.30;3.08;;;10.00;99.90;;;;;;5155118;27;20047;-71
2022/11/10 04:00:18;;;;;;;10.90;3.05;;;9.80;99.90;;;;;;5136800;27;20137;-72
2022/11/10 04:02:44;;;;;;;12.05;3.40;;;9.70;99.90;;;;;;5155268;27;20078;-71
2022/11/10 04:10:45;;;;;;;10.05;3.15;;;10.10;99.90;;;;;;5154587;27;20046;-71
2022/11/10 04:15:55;;;;;;;11.90;3.92;;;9.80;99.90;;;;;;5155070;27;20057;-72
2022/11/10 04:18:21;;;;;;;11.38;3.17;;;10.10;99.90;;;;;;5155042;27;20038;-72
2022/11/10 04:20:47;;;;;;;10.50;3.75;;;9.90;99.90;;;;;;5119519;27;20046;-71
2022/11/10 04:23:26;;;;;;;12.88;3.33;;;10.10;99.90;;;;;;5154562;27;20146;-71
2022/11/10 04:26:28;;;;;;;8.80;3.85;;;9.90;99.90;;;;;;5155682;27;20045;-71
2022/11/10 04:28:58;;;;;;;12.05;3.83;;;9.80;99.90;;;;;;5155037;27;20054;-71
2022/11/10 04:31:26;;;;;;;15.90;4.13;;;9.80;99.90;;;;;;5154907;27;20055;-71
2022/11/10 04:33:53;;;;;;;13.45;4.07;;;9.80;99.90;;;;;;5154555;27;20154;-72
2022/11/10 04:36:21;;;;;;;11.07;3.85;;;10.10;99.90;;;;;;5154261;27;20082;-71
2022/11/10 04:38:47;;;;;;;9.77;4.50;;;9.90;99.90;;;;;;5136483;27;20122;-71
2022/11/10 04:41:13;;;;;;;10.98;3.80;;;10.00;99.90;;;;;;5154584;27;20043;-71
2022/11/10 04:43:39;;;;;;;9.60;4.03;;;9.90;99.90;;;;;;5154836;27;20081;-71
2022/11/10 04:46:06;;;;;;;12.38;4.32;;;10.00;99.90;;;;;;5136447;27;20039;-71
2022/11/10 04:48:33;;;;;;;15.65;4.40;;;9.70;99.90;;;;;;5154517;27;20039;-71
2022/11/10 04:51:05;;;;;;;14.98;4.70;;;10.00;99.90;;;;;;5154469;27;20085;-71
2022/11/10 04:53:31;;;;;;;13.48;5.00;;;9.80;99.90;;;;;;5135794;27;20043;-71
2022/11/10 04:55:56;;;;;;;11.80;4.22;;;10.10;99.90;;;;;;5154628;27;20038;-71
2022/11/10 04:58:22;;;;;;;11.98;3.92;;;9.70;99.90;;;;;;5136183;27;20069;-71
2022/11/10 05:00:48;;;;;;;10.35;4.70;;;9.40;99.90;;;;;;5136138;27;20494;-71
2022/11/10 05:03:14;;;;;;;12.73;4.20;;;10.00;99.90;;;;;;5154485;27;20039;-71
2022/11/10 05:05:40;;;;;;;13.38;4.53;;;9.90;99.90;;;;;;5154896;27;20049;-72
2022/11/10 05:08:06;;;;;;;16.48;4.50;;;9.80;99.90;;;;;;5153903;27;20042;-71
2022/11/10 05:10:34;;;;;;;15.35;5.70;;;9.90;99.90;;;;;;5154531;27;20051;-71
2022/11/10 05:12:59;;;;;;;14.65;4.57;;;10.10;99.90;;;;;;5119025;27;20115;-71
2022/11/10 05:15:25;;;;;;;14.73;4.18;;;9.90;99.90;;;;;;5154182;27;20050;-71
2022/11/10 05:17:52;;;;;;;10.38;4.30;;;10.10;99.90;;;;;;5136345;27;20478;-71
2022/11/10 05:20:19;;;;;;;9.70;4.35;;;10.10;99.90;;;;;;5154509;27;20506;-72
2022/11/10 05:23:36;;;;;;;12.40;3.80;;;9.90;99.90;;;;;;5157119;27;20050;-71
2022/11/10 05:25:34;;;;;;;12.60;4.07;;;10.20;99.90;;;;;;5139544;27;20061;-71
2022/11/10 05:28:01;;;;;;;12.27;4.43;;;9.90;99.90;;;;;;5139551;27;20125;-71
2022/11/10 05:30:26;;;;;;;16.52;4.72;;;9.80;99.90;;;;;;5157872;27;20103;-71
2022/11/10 05:32:52;;;;;;;11.27;3.95;;;9.90;99.90;;;;;;5139652;27;20432;-71
2022/11/10 05:35:18;;;;;;;14.55;4.63;;;9.90;99.90;;;;;;5158144;27;20101;-71
2022/11/10 05:37:43;;;;;;;10.90;4.50;;;10.10;99.90;;;;;;5157367;27;20042;-72
2022/11/10 05:40:09;;;;;;;16.30;4.50;;;9.90;99.90;;;;;;5157790;27;20042;-71
2022/11/10 05:42:45;;;;;;;14.68;4.97;;;9.90;99.90;;;;;;5157674;27;20125;-71
2022/11/10 05:45:11;;;;;;;10.82;4.40;;;9.90;99.90;;;;;;5157977;27;20039;-71
2022/11/10 05:47:37;;;;;;;15.70;5.55;;;10.20;99.90;;;;;;5157532;27;20069;-71
2022/11/10 05:50:04;;;;;;;11.70;4.82;;;10.10;99.90;;;;;;5157532;27;20049;-72
2022/11/10 05:52:29;;;;;;;13.18;4.28;;;9.90;99.90;;;;;;5157350;27;20043;-71
2022/11/10 05:54:55;;;;;;;15.70;4.88;;;10.20;99.90;;;;;;5157496;27;20045;-72
2022/11/10 05:57:21;;;;;;;12.43;5.05;;;9.90;99.90;;;;;;5157322;27;20125;-71
2022/11/10 05:59:47;;;;;;;12.52;4.15;;;9.90;99.90;;;;;;5157228;27;20042;-71
2022/11/10 06:02:12;;;;;;;14.73;4.72;;;10.00;99.90;;;;;;5157474;27;20042;-71
2022/11/10 06:04:38;;;;;;;14.10;4.70;;;10.60;99.90;;;;;;5139068;27;20050;-71
2022/11/10 06:07:04;;;;;;;13.20;5.03;;;10.70;99.90;;;;;;5156776;27;20405;-71
2022/11/10 06:09:29;;;;;;;15.50;4.75;;;10.30;99.90;;;;;;5157330;27;20046;-71
2022/11/10 06:11:55;;;;;;;11.75;5.13;;;10.30;99.90;;;;;;5156780;27;20049;-71
2022/11/10 06:14:21;;;;;;;11.27;4.07;;;10.10;99.90;;;;;;5157274;27;20130;-71
2022/11/10 06:16:46;;;;;;;14.68;4.80;;;10.30;99.90;;;;;;5104824;27;20079;-72
2022/11/10 06:19:12;;;;;;;11.30;4.50;;;10.10;99.90;;;;;;5157205;27;20046;-71
2022/11/10 06:21:37;;;;;;;13.25;4.53;;;10.00;99.90;;;;;;5121365;27;20061;-71
2022/11/10 06:24:03;;;;;;;16.30;4.55;;;10.30;99.90;;;;;;5157120;27;20047;-71
2022/11/10 06:26:29;;;;;;;16.35;5.03;;;10.00;99.90;;;;;;5156683;27;20508;-71
2022/11/10 06:28:56;;;;;;;15.00;4.68;;;10.10;99.90;;;;;;5157144;27;20039;-71
2022/11/10 06:31:22;;;;;;;17.20;5.05;;;10.00;99.90;;;;;;5156718;27;20486;-71
2022/11/10 06:33:48;;;;;;;14.73;4.95;;;10.10;99.90;;;;;;5138163;27;20042;-71
2022/11/10 06:36:14;;;;;;;10.55;4.25;;;10.10;99.90;;;;;;5156373;27;20500;-72
2022/11/10 06:38:40;;;;;;;12.93;4.68;;;10.00;99.90;;;;;;5156474;27;20047;-71
2022/11/10 06:41:05;;;;;;;15.82;4.90;;;10.20;99.90;;;;;;5137975;27;20130;-71
2022/11/10 06:43:31;;;;;;;13.13;4.78;;;10.00;99.90;;;;;;5156581;27;20035;-71
2022/11/10 06:45:57;;;;;;;11.68;4.85;;;10.40;99.90;;;;;;5156691;27;20043;-71
2022/11/10 06:48:23;;;;;;;16.33;5.25;;;10.00;99.90;;;;;;5156436;27;20043;-71
2022/11/10 06:50:48;;;;;;;11.75;4.10;;;10.10;99.90;;;;;;5156389;27;20554;-71
2022/11/10 06:53:15;;;;;;;13.82;4.72;;;10.30;99.90;;;;;;5156116;27;20035;-71
2022/11/10 06:55:41;;;;;;;15.63;5.15;;;9.90;99.90;;;;;;5137694;27;20047;-71
2022/11/10 06:58:07;;;;;;;18.42;5.28;;;10.50;99.90;;;;;;5156423;27;20102;-72
2022/11/10 07:00:33;;;;;;;10.15;4.80;;;9.90;99.90;;;;;;5156317;27;20494;-71
2022/11/10 07:02:59;;;;;;;13.52;5.13;;;10.00;99.90;;;;;;5137699;27;20043;-72
2022/11/10 07:05:25;;;;;;;10.00;4.95;;;10.00;99.90;;;;;;5156141;27;20051;-71
2022/11/10 07:07:50;;;;;;;13.75;4.70;;;10.10;99.90;;;;;;5120378;27;20053;-72
2022/11/10 07:10:16;;;;;;;13.38;5.13;;;10.10;99.90;;;;;;5137422;27;20611;-71
2022/11/10 07:12:42;;;;;;;14.00;4.90;;;10.10;99.90;;;;;;5120444;27;20062;-72
2022/11/10 07:15:08;;;;;;;14.95;5.38;;;10.20;99.90;;;;;;5155742;27;20074;-71
2022/11/10 07:17:39;;;;;;;15.20;5.35;;;10.10;99.90;;;;;;5120495;27;20402;-71
2022/11/10 07:20:06;;;;;;;17.00;5.07;;;10.40;99.90;;;;;;5120321;27;20542;-71
2022/11/10 07:22:32;;;;;;;10.77;4.60;;;10.10;99.90;;;;;;5155401;27;20134;-71
2022/11/10 07:24:58;;;;;;;16.25;4.80;;;10.20;99.90;;;;;;5137695;27;20071;-71
2022/11/10 07:27:23;;;;;;;16.15;5.32;;;10.10;99.90;;;;;;5155634;27;20514;-71
2022/11/10 07:29:49;;;;;;;15.52;5.63;;;10.20;99.90;;;;;;5155843;27;20042;-71
2022/11/10 07:32:15;;;;;;;14.13;4.50;;;10.20;99.90;;;;;;5137251;27;20071;-72
2022/11/10 07:34:40;;;;;;;15.65;4.88;;;10.30;99.90;;;;;;5155462;27;20043;-71
2022/11/10 07:37:06;;;;;;;9.82;4.22;;;10.30;99.90;;;;;;5155067;27;20513;-71
2022/11/10 07:39:32;;;;;;;15.77;4.80;;;10.40;99.90;;;;;;5155205;27;20119;-71
2022/11/10 07:41:57;;;;;;;14.32;4.50;;;10.50;99.90;;;;;;5155857;27;20049;-71
2022/11/10 07:44:23;;;;;;;14.60;4.65;;;10.50;99.90;;;;;;5154696;27;20047;-71
2022/11/10 07:46:49;;;;;;;11.63;4.13;;;10.50;99.90;;;;;;5137313;27;20066;-71
2022/11/10 07:49:14;;;;;;;13.48;4.75;;;10.40;99.90;;;;;;5155302;27;20371;-71
2022/11/10 07:51:42;;;;;;;9.27;4.28;;;10.50;99.90;;;;;;5155157;27;20038;-71
2022/11/10 07:54:07;;;;;;;14.23;4.10;;;10.60;99.90;;;;;;5136700;27;20043;-71
2022/11/10 07:56:33;;;;;;;12.23;4.18;;;10.40;99.90;;;;;;5137145;27;20073;-71
2022/11/10 07:58:59;;;;;;;13.63;5.18;;;10.60;99.90;;;;;;5136624;27;20034;-72
2022/11/10 08:01:24;;;;;;;13.93;4.90;;;10.80;99.90;;;;;;5136629;27;20087;-72
2022/11/10 08:03:50;;;;;;;11.57;4.90;;;10.50;99.90;;;;;;5086025;27;20039;-72
2022/11/10 08:06:16;;;;;;;12.73;4.53;;;10.30;99.90;;;;;;5136156;27;20048;-72
2022/11/10 08:08:42;;;;;;;13.55;4.45;;;10.40;99.90;;;;;;5154885;27;20038;-71
2022/11/10 08:11:07;;;;;;;14.05;4.65;;;10.40;99.90;;;;;;5136701;27;20082;-71
2022/11/10 08:13:33;;;;;;;17.70;4.93;;;10.50;99.90;;;;;;5155142;27;20039;-71
2022/11/10 08:15:59;;;;;;;17.05;5.22;;;10.30;99.90;;;;;;5136412;27;20509;-71
2022/11/10 08:18:24;;;;;;;13.07;5.18;;;10.50;99.90;;;;;;5136660;27;20053;-71
2022/11/10 08:20:51;;;;;;;16.02;5.07;;;10.70;99.90;;;;;;5155107;27;20424;-71
2022/11/10 08:23:17;;;;;;;13.57;4.75;;;10.40;99.90;;;;;;5154497;27;20414;-71
2022/11/10 08:25:43;;;;;;;12.85;4.82;;;10.40;99.90;;;;;;5155168;27;20042;-71
2022/11/10 08:28:11;;;;;;;15.10;4.90;;;10.30;99.90;;;;;;5136509;27;20062;-71
2022/11/10 08:30:39;;;;;;;13.88;4.97;;;10.40;99.90;;;;;;5154950;27;20047;-71
2022/11/10 08:33:07;;;;;;;13.32;4.40;;;10.40;99.90;;;;;;5154894;27;20046;-71
2022/11/10 08:35:35;;;;;;;12.02;4.68;;;10.40;99.90;;;;;;5136177;27;20074;-71
2022/11/10 08:38:21;;;;;;;13.93;5.47;;;10.30;99.90;;;;;;5135781;27;20034;-71
2022/11/10 08:40:48;;;;;;;20.40;5.97;;;10.50;99.90;;;;;;5154785;27;20125;-71
2022/11/10 08:43:15;;;;;;;15.02;5.00;;;10.70;99.90;;;;;;5154849;27;20039;-71
2022/11/10 08:45:42;;;;;;;15.07;5.60;;;10.50;99.90;;;;;;5136554;27;20043;-71
2022/11/10 08:48:16;;;;;;;11.88;5.22;;;10.50;99.90;;;;;;5154695;27;20078;-72
2022/11/10 08:50:42;;;;;;;15.43;4.78;;;10.40;99.90;;;;;;5154630;27;20077;-71
2022/11/10 08:53:13;;;;;;;14.18;5.50;;;10.50;99.90;;;;;;5119147;27;20046;-72
2022/11/10 08:55:40;;;;;;;14.60;5.30;;;10.60;99.90;;;;;;5154924;27;20047;-72
2022/11/10 08:58:07;;;;;;;15.52;4.55;;;10.70;99.90;;;;;;5122856;27;20050;-73
2022/11/10 09:00:34;;;;;;;16.05;5.55;;;11.10;99.90;;;;;;5140169;27;20053;-71
2022/11/10 09:03:06;;;;;;;14.10;4.72;;;11.00;99.90;;;;;;5158547;27;20038;-71
2022/11/10 09:05:32;;;;;;;14.07;5.43;;;11.20;99.90;;;;;;5140466;27;20096;-70
2022/11/10 09:07:58;;;;;;;13.27;4.80;;;10.80;99.90;;;;;;5157987;27;20050;-71
2022/11/10 09:10:24;;;;;;;14.02;5.13;;;11.00;99.90;;;;;;5158456;27;20038;-70
2022/11/10 09:12:50;;;;;;;12.93;5.20;;;11.10;99.90;;;;;;5158417;27;20109;-69
2022/11/10 09:15:15;;;;;;;12.73;5.95;;;11.10;99.90;;;;;;5140023;27;20047;-70
2022/11/10 09:17:41;;;;;;;14.50;5.65;;;11.10;99.90;;;;;;5158538;27;20508;-72
2022/11/10 09:20:08;;;;;;;14.10;5.45;;;11.10;99.90;;;;;;5105902;27;20078;-71
2022/11/10 09:22:35;;;;;;;15.05;5.45;;;11.20;99.90;;;;;;5139877;27;20122;-71
2022/11/10 09:25:01;;;;;;;13.23;5.75;;;11.20;99.90;;;;;;5139553;27;20038;-73
2022/11/10 09:27:27;;;;;;;11.25;5.70;;;11.20;99.90;;;;;;5129556;27;20096;-72
2022/11/10 09:29:52;;;;;;;16.23;6.07;;;11.20;99.90;;;;;;5145912;27;20039;-72
2022/11/10 09:32:18;;;;;;;15.38;5.40;;;11.30;99.90;;;;;;5129495;27;20043;-72
2022/11/10 09:34:44;;;;;;;16.77;4.82;;;11.40;99.90;;;;;;5129454;27;20046;-72
2022/11/10 09:37:09;;;;;;;18.45;5.88;;;11.30;99.90;;;;;;5110488;27;20050;-71
2022/11/10 09:39:35;;;;;;;12.35;5.50;;;11.70;99.90;;;;;;5147790;27;20073;-71
2022/11/10 09:42:03;;;;;;;15.60;6.05;;;11.90;99.90;;;;;;5147047;27;20046;-71
2022/11/10 09:44:38;;;;;;;13.02;5.25;;;11.60;99.90;;;;;;5127855;27;20049;-71
2022/11/10 09:47:15;;;;;;;15.23;5.90;;;11.60;99.90;;;;;;5128258;27;20073;-71
2022/11/10 09:49:48;;;;;;;12.77;5.60;;;11.80;99.90;;;;;;5147062;27;20039;-72
2022/11/10 09:52:16;;;;;;;16.67;5.10;;;12.00;99.90;;;;;;5127994;27;20082;-71
2022/11/10 09:54:47;;;;;;;10.80;5.05;;;11.80;99.90;;;;;;5146648;27;20047;-72
2022/11/10 09:57:17;;;;;;;14.30;4.82;;;11.80;99.90;;;;;;5148052;27;20051;-71
2022/11/10 09:59:43;;;;;;;8.85;4.20;;;12.10;99.90;;;;;;5146995;27;20042;-71
2022/11/10 10:02:31;;;;;;;13.98;4.40;;;11.80;99.90;;;;;;5127239;27;20051;-71
2022/11/10 10:05:32;;;;;;;11.85;4.40;;;11.90;99.90;;;;;;5127836;27;20070;-71
2022/11/10 10:08:22;;;;;;;15.15;3.47;;;11.90;99.90;;;;;;5145283;27;20049;-71
2022/11/10 10:10:58;;;;;;;18.38;5.03;;;11.90;99.90;;;;;;5126697;27;20042;-72
2022/11/10 10:13:48;;;;;;;13.32;5.25;;;11.90;99.90;;;;;;5146809;27;20047;-72
2022/11/10 10:16:32;;;;;;;13.95;4.40;;;12.10;99.90;;;;;;5145551;27;20047;-71
2022/11/10 10:19:10;;;;;;;13.85;4.43;;;12.10;99.90;;;;;;5110872;27;20132;-72
2022/11/10 10:21:59;;;;;;;11.55;4.40;;;12.10;99.90;;;;;;5127503;27;20432;-72
2022/11/10 10:24:29;;;;;;;14.98;4.43;;;12.10;99.90;;;;;;5122393;27;20043;-70
2022/11/10 10:26:57;;;;;;;14.45;4.60;;;12.20;99.90;;;;;;5126549;27;20483;-70
2022/11/10 10:29:36;;;;;;;12.30;4.70;;;12.30;99.90;;;;;;5144349;27;20072;-70
2022/11/10 10:32:02;;;;;;;11.40;4.10;;;12.30;99.90;;;;;;5127202;27;20054;-71
2022/11/10 10:34:30;;;;;;;12.93;4.55;;;12.40;99.90;;;;;;5144361;27;20042;-71
2022/11/10 10:36:56;;;;;;;11.45;4.05;;;12.40;99.90;;;;;;5144450;27;20035;-70
2022/11/10 10:39:22;;;;;;;12.15;4.75;;;12.30;99.90;;;;;;5145352;27;20078;-71
2022/11/10 10:41:47;;;;;;;15.02;4.18;;;12.50;99.90;;;;;;5127446;27;20070;-70
2022/11/10 10:44:16;;;;;;;12.75;3.58;;;12.50;99.90;;;;;;5146156;27;20125;-71
2022/11/10 10:46:49;;;;;;;13.00;4.00;;;12.40;99.90;;;;;;5128686;27;20043;-71
2022/11/10 10:49:25;;;;;;;12.98;4.32;;;12.50;99.90;;;;;;5143820;27;20394;-71
2022/11/10 10:52:15;;;;;;;13.93;3.95;;;12.50;99.90;;;;;;5145957;27;20106;-71
2022/11/10 10:54:40;;;;;;;15.68;3.63;;;12.60;99.90;;;;;;5140728;27;20035;-70
2022/11/10 10:57:28;;;;;;;16.55;4.40;;;12.50;99.90;;;;;;5146769;27;20050;-71
2022/11/10 11:00:29;;;;;;;13.93;3.92;;;12.70;99.90;;;;;;5128308;27;20497;-71
2022/11/10 11:03:20;;;;;;;14.95;4.72;;;12.50;99.90;;;;;;5143121;27;20126;-71
2022/11/10 11:06:01;;;;;;;14.00;4.70;;;12.70;99.90;;;;;;5144961;27;20039;-70
2022/11/10 11:08:27;;;;;;;16.15;4.47;;;12.70;99.90;;;;;;5145268;27;20091;-71
2022/11/10 11:10:52;;;;;;;15.32;5.50;;;12.80;99.90;;;;;;5145515;27;20042;-70
2022/11/10 11:13:25;;;;;;;16.38;5.75;;;12.70;99.90;;;;;;5125860;27;20063;-70
2022/11/10 11:15:59;;;;;;;15.77;4.97;;;12.80;99.90;;;;;;5124952;27;20118;-70
2022/11/10 11:18:28;;;;;;;17.27;5.60;;;12.80;99.90;;;;;;5129804;27;20555;-71
2022/11/10 11:21:15;;;;;;;13.90;5.20;;;12.80;99.90;;;;;;5124560;27;20051;-71
2022/11/10 11:24:07;;;;;;;17.05;5.53;;;12.90;99.90;;;;;;5115120;27;20070;-71
2022/11/10 11:26:55;;;;;;;15.80;5.13;;;12.90;99.90;;;;;;5102781;28;20040;-70
2022/11/10 11:29:58;;;;;;;13.45;4.32;;;12.90;99.90;;;;;;5111669;28;20395;-70
2022/11/10 11:32:51;;;;;;;12.95;3.97;;;12.90;99.90;;;;;;5108888;28;20089;-70
2022/11/10 11:35:19;;;;;;;13.02;3.63;;;13.10;99.90;;;;;;5111045;28;20057;-70
2022/11/10 11:38:06;;;;;;;15.05;3.60;;;13.20;99.90;;;;;;5109096;28;20466;-71
2022/11/10 11:40:46;;;;;;;12.13;2.95;;;13.00;99.90;;;;;;5112181;28;20444;-70
2022/11/10 11:43:18;;;;;;;9.48;2.92;;;13.20;99.90;;;;;;5113052;28;20139;-71
2022/11/10 11:46:28;;;;;;;13.48;3.08;;;13.40;99.90;;;;;;5110715;28;20035;-70
2022/11/10 11:49:15;;;;;;;11.60;1.90;;;13.20;99.90;;;;;;5033488;28;20519;-71
2022/11/10 11:52:05;;;;;;;9.27;2.10;;;13.60;99.90;;;;;;5107727;28;20055;-70
2022/11/10 11:54:43;;;;;;;8.15;1.42;;;13.40;99.90;;;;;;5109764;28;20043;-71
2022/11/10 11:57:34;;;;;;;10.88;2.13;;;13.30;99.90;;;;;;5109608;28;20079;-71
2022/11/10 12:00:02;;;;;;;9.90;1.58;;;13.40;99.90;;;;;;5110951;28;20043;-71
2022/11/10 12:03:05;;;;;;;14.95;2.00;;;13.50;99.90;;;;;;5111606;28;20063;-71
2022/11/10 12:05:51;;;;;;;7.63;1.65;;;13.60;99.90;;;;;;5112322;28;20043;-72
2022/11/10 12:08:25;;;;;;;5.88;1.30;;;13.60;99.90;;;;;;5110138;28;20051;-71
2022/11/10 12:11:33;;;;;;;8.82;2.10;;;13.40;99.90;;;;;;5109080;28;20073;-71
2022/11/10 12:14:19;;;;;;;9.57;1.90;;;13.50;99.90;;;;;;5098194;28;20047;-70
2022/11/10 12:17:13;;;;;;;9.63;1.98;;;13.60;99.90;;;;;;5109008;28;20039;-71
2022/11/10 12:20:02;;;;;;;10.93;2.05;;;13.50;99.90;;;;;;5109462;28;20047;-71
2022/11/10 12:22:34;;;;;;;10.02;1.90;;;13.60;99.90;;;;;;5117603;27;20065;-72
2022/11/10 12:25:11;;;;;;;9.85;2.20;;;13.80;99.90;;;;;;5119552;27;20050;-71
2022/11/10 12:27:43;;;;;;;9.00;2.22;;;13.60;99.90;;;;;;5126078;27;20050;-71
2022/11/10 12:30:12;;;;;;;8.65;1.80;;;13.60;99.90;;;;;;5126584;27;20095;-71
2022/11/10 12:33:03;;;;;;;11.20;2.00;;;13.60;99.90;;;;;;5112867;27;20487;-71
2022/11/10 12:35:36;;;;;;;11.00;2.03;;;13.90;99.90;;;;;;5131199;27;20096;-71
2022/11/10 12:38:20;;;;;;;11.13;2.00;;;13.70;99.90;;;;;;5129790;27;20035;-70
2022/11/10 12:40:49;;;;;;;10.25;1.70;;;13.60;99.90;;;;;;5147378;27;20380;-70
2022/11/10 12:43:37;;;;;;;9.15;1.55;;;13.70;99.90;;;;;;5130745;27;20091;-71
2022/11/10 12:46:07;;;;;;;9.55;1.70;;;13.60;99.90;;;;;;5147413;27;20141;-70
2022/11/10 12:49:04;;;;;;;5.13;1.50;;;13.90;99.90;;;;;;5128341;27;20058;-70
2022/11/10 12:51:43;;;;;;;11.45;1.70;;;13.60;99.90;;;;;;5148432;27;20051;-70
2022/11/10 12:54:12;;;;;;;13.02;2.63;;;13.60;99.90;;;;;;5112948;27;20126;-70
2022/11/10 12:57:10;;;;;;;14.25;1.88;;;13.40;99.90;;;;;;5144687;27;20146;-70
2022/11/10 12:59:47;;;;;;;9.40;1.80;;;13.60;99.90;;;;;;5146383;27;20035;-70
2022/11/10 13:02:43;;;;;;;11.02;1.83;;;13.60;99.90;;;;;;5146186;27;20039;-71
2022/11/10 13:05:14;;;;;;;6.32;1.15;;;13.60;99.90;;;;;;5148464;27;20043;-71